createdAt,value
2022-07-25T00:00:30.389Z,1000.02
2022-07-25T00:01:30.557Z,1000.04
2022-07-25T00:02:30.432Z,1000.02
2022-07-25T00:03:30.341Z,999.93
2022-07-25T00:04:30.396Z,999.99
2022-07-25T00:05:34.453Z,999.94
2022-07-25T00:06:31.297Z,999.95
2022-07-25T00:07:30.278Z,999.92
2022-07-25T00:08:30.259Z,999.92
2022-07-25T00:09:30.301Z,999.90
2022-07-25T00:10:30.278Z,999.91
2022-07-25T00:11:30.231Z,999.92
2022-07-25T00:12:30.204Z,999.90
2022-07-25T00:13:30.260Z,999.87
2022-07-25T00:14:30.181Z,999.86
2022-07-25T00:15:30.190Z,999.85
2022-07-25T00:16:30.220Z,999.85
2022-07-25T00:17:30.149Z,999.84
2022-07-25T00:18:30.143Z,999.82
2022-07-25T00:19:30.121Z,999.83
2022-07-25T00:20:30.100Z,999.80
2022-07-25T00:21:30.101Z,999.77
2022-07-25T00:22:30.112Z,999.77
2022-07-25T00:23:30.080Z,999.77
2022-07-25T00:24:30.330Z,999.74
2022-07-25T00:25:30.051Z,999.75
2022-07-25T00:26:30.026Z,999.73
2022-07-25T00:27:30.011Z,999.71
2022-07-25T00:28:29.990Z,999.69
2022-07-25T00:29:29.991Z,999.70
2022-07-25T00:30:29.981Z,999.73
2022-07-25T00:31:30.060Z,999.73
2022-07-25T00:32:29.940Z,999.67
2022-07-25T00:33:29.954Z,999.67
2022-07-25T00:34:29.920Z,999.66
2022-07-25T00:35:30.070Z,999.65
2022-07-25T00:36:29.911Z,999.60
2022-07-25T00:37:29.899Z,999.66
2022-07-25T00:38:29.863Z,999.61
2022-07-25T00:39:29.871Z,999.59
2022-07-25T00:40:29.860Z,999.54
2022-07-25T00:41:29.842Z,999.57
2022-07-25T00:42:29.831Z,999.59
2022-07-25T00:43:29.813Z,999.58
2022-07-25T00:44:29.791Z,999.57
2022-07-25T00:45:29.794Z,999.54
2022-07-25T00:46:29.970Z,999.54
2022-07-25T00:47:29.764Z,999.52
2022-07-25T00:48:29.803Z,999.53
2022-07-25T00:49:29.742Z,999.52
2022-07-25T00:50:29.723Z,999.56
2022-07-25T00:51:29.703Z,999.50
2022-07-25T00:52:29.686Z,999.50
2022-07-25T00:53:29.685Z,999.53
2022-07-25T00:54:29.673Z,999.54
2022-07-25T00:55:29.653Z,999.49
2022-07-25T00:56:29.634Z,999.48
2022-07-25T00:57:29.757Z,999.52
2022-07-25T00:58:29.646Z,999.52
2022-07-25T00:59:29.595Z,999.47
2022-07-25T01:00:29.584Z,999.49
2022-07-25T01:01:29.618Z,999.46
2022-07-25T01:02:29.627Z,999.47
2022-07-25T01:03:29.566Z,999.46
2022-07-25T01:04:29.547Z,999.47
2022-07-25T01:05:29.546Z,999.45
2022-07-25T01:06:29.516Z,999.50
2022-07-25T01:07:29.497Z,999.43
2022-07-25T01:08:29.826Z,999.45
2022-07-25T01:09:29.502Z,999.44
2022-07-25T01:10:29.458Z,999.44
2022-07-25T01:11:29.447Z,999.44
2022-07-25T01:12:29.427Z,999.48
2022-07-25T01:13:29.428Z,999.43
2022-07-25T01:14:29.409Z,999.44
2022-07-25T01:15:29.490Z,999.43
2022-07-25T01:16:29.473Z,999.40
2022-07-25T01:17:29.369Z,999.43
2022-07-25T01:18:29.362Z,999.38
2022-07-25T01:19:29.411Z,999.36
2022-07-25T01:20:29.329Z,999.36
2022-07-25T01:21:29.326Z,999.36
2022-07-25T01:22:29.298Z,999.30
2022-07-25T01:23:29.294Z,999.30
2022-07-25T01:24:29.280Z,999.31
2022-07-25T01:25:29.271Z,999.27
2022-07-25T01:26:29.248Z,999.29
2022-07-25T01:27:29.240Z,999.30
2022-07-25T01:28:29.220Z,999.31
2022-07-25T01:29:29.221Z,999.34
2022-07-25T01:30:29.341Z,999.32
2022-07-25T01:31:29.248Z,999.30
2022-07-25T01:32:29.169Z,999.27
2022-07-25T01:33:29.171Z,999.24
2022-07-25T01:34:29.140Z,999.23
2022-07-25T01:35:29.133Z,999.25
2022-07-25T01:36:29.122Z,999.19
2022-07-25T01:37:29.120Z,999.20
2022-07-25T01:38:29.100Z,999.16
2022-07-25T01:39:29.090Z,999.13
2022-07-25T01:40:29.061Z,999.11
2022-07-25T01:41:29.249Z,999.14
2022-07-25T01:42:29.042Z,999.09
2022-07-25T01:43:29.047Z,999.12
2022-07-25T01:44:29.012Z,999.11
2022-07-25T01:45:29.010Z,999.06
2022-07-25T01:46:29.070Z,999.06
2022-07-25T01:47:28.984Z,999.03
2022-07-25T01:48:29.015Z,999.00
2022-07-25T01:49:28.957Z,999.02
2022-07-25T01:50:28.942Z,998.99
2022-07-25T01:51:28.934Z,998.97
2022-07-25T01:52:29.281Z,999.00
2022-07-25T01:53:28.902Z,998.98
2022-07-25T01:54:28.887Z,999.01
2022-07-25T01:55:29.347Z,999.00
2022-07-25T01:56:28.855Z,999.02
2022-07-25T01:57:31.120Z,999.01
2022-07-25T01:58:28.833Z,998.98
2022-07-25T01:59:28.825Z,999.00
2022-07-25T02:00:28.817Z,998.94
2022-07-25T02:01:28.879Z,998.90
2022-07-25T02:02:28.785Z,998.93
2022-07-25T02:03:29.284Z,998.90
2022-07-25T02:04:28.804Z,998.91
2022-07-25T02:05:28.745Z,998.88
2022-07-25T02:06:28.727Z,998.88
2022-07-25T02:07:28.725Z,998.82
2022-07-25T02:08:28.727Z,998.80
2022-07-25T02:09:28.696Z,998.77
2022-07-25T02:10:28.689Z,998.78
2022-07-25T02:11:28.667Z,998.77
2022-07-25T02:12:28.647Z,998.77
2022-07-25T02:13:28.637Z,998.71
2022-07-25T02:14:28.946Z,998.77
2022-07-25T02:15:28.621Z,998.76
2022-07-25T02:16:28.702Z,998.79
2022-07-25T02:17:28.679Z,998.74
2022-07-25T02:18:28.578Z,998.74
2022-07-25T02:19:28.580Z,998.71
2022-07-25T02:20:28.558Z,998.72
2022-07-25T02:21:28.551Z,998.68
2022-07-25T02:22:28.529Z,998.65
2022-07-25T02:23:28.517Z,998.66
2022-07-25T02:24:28.498Z,998.63
2022-07-25T02:25:28.559Z,998.61
2022-07-25T02:26:28.502Z,998.62
2022-07-25T02:27:28.458Z,998.61
2022-07-25T02:28:28.451Z,998.62
2022-07-25T02:29:28.438Z,998.56
2022-07-25T02:30:28.513Z,998.58
2022-07-25T02:31:28.409Z,998.57
2022-07-25T02:32:28.406Z,998.52
2022-07-25T02:33:28.393Z,998.54
2022-07-25T02:34:28.372Z,998.52
2022-07-25T02:35:28.360Z,998.52
2022-07-25T02:36:28.500Z,998.58
2022-07-25T02:37:28.339Z,998.46
2022-07-25T02:38:28.320Z,998.48
2022-07-25T02:39:28.322Z,998.49
2022-07-25T02:40:28.291Z,998.45
2022-07-25T02:41:28.289Z,998.44
2022-07-25T02:42:28.261Z,998.46
2022-07-25T02:43:28.264Z,998.42
2022-07-25T02:44:28.232Z,998.44
2022-07-25T02:45:28.251Z,998.43
2022-07-25T02:46:28.273Z,998.44
2022-07-25T02:47:28.309Z,998.41
2022-07-25T02:48:28.253Z,998.41
2022-07-25T02:49:28.184Z,998.37
2022-07-25T02:50:28.161Z,998.39
2022-07-25T02:51:28.184Z,998.36
2022-07-25T02:52:28.132Z,998.37
2022-07-25T02:53:54.384Z,998.33
2022-07-25T02:54:29.106Z,998.37
2022-07-25T02:55:28.102Z,998.34
2022-07-25T02:56:30.084Z,998.38
2022-07-25T02:57:28.074Z,998.39
2022-07-25T02:58:28.143Z,998.40
2022-07-25T02:59:32.127Z,998.43
2022-07-25T03:00:28.036Z,998.40
2022-07-25T03:01:28.117Z,998.42
2022-07-25T03:02:28.012Z,998.41
2022-07-25T03:03:27.999Z,998.39
2022-07-25T03:04:28.055Z,998.38
2022-07-25T03:05:27.976Z,998.37
2022-07-25T03:06:27.955Z,998.38
2022-07-25T03:07:27.953Z,998.37
2022-07-25T03:08:27.926Z,998.40
2022-07-25T03:09:28.069Z,998.36
2022-07-25T03:10:27.925Z,998.39
2022-07-25T03:11:27.892Z,998.36
2022-07-25T03:12:27.877Z,998.40
2022-07-25T03:13:27.868Z,998.41
2022-07-25T03:14:27.866Z,998.42
2022-07-25T03:15:27.846Z,998.41
2022-07-25T03:16:27.848Z,998.39
2022-07-25T03:17:27.817Z,998.42
2022-07-25T03:18:27.814Z,998.35
2022-07-25T03:19:27.786Z,998.39
2022-07-25T03:20:28.068Z,998.39
2022-07-25T03:21:27.758Z,998.38
2022-07-25T03:22:27.748Z,998.40
2022-07-25T03:23:27.737Z,998.36
2022-07-25T03:24:27.728Z,998.37
2022-07-25T03:25:27.708Z,998.38
2022-07-25T03:26:27.711Z,998.38
2022-07-25T03:27:27.687Z,998.37
2022-07-25T03:28:27.679Z,998.36
2022-07-25T03:29:27.681Z,998.34
2022-07-25T03:30:27.661Z,998.40
2022-07-25T03:31:27.848Z,998.39
2022-07-25T03:32:27.628Z,998.36
2022-07-25T03:33:27.619Z,998.41
2022-07-25T03:34:27.590Z,998.39
2022-07-25T03:35:27.578Z,998.37
2022-07-25T03:36:27.569Z,998.37
2022-07-25T03:37:27.559Z,998.36
2022-07-25T03:38:27.550Z,998.32
2022-07-25T03:39:27.538Z,998.32
2022-07-25T03:40:27.519Z,998.29
2022-07-25T03:41:28.017Z,998.27
2022-07-25T03:42:31.031Z,998.24
2022-07-25T03:43:28.481Z,998.22
2022-07-25T03:44:27.472Z,998.22
2022-07-25T03:45:27.504Z,998.18
2022-07-25T03:46:27.552Z,998.19
2022-07-25T03:47:27.436Z,998.17
2022-07-25T03:48:27.471Z,998.15
2022-07-25T03:49:27.407Z,998.17
2022-07-25T03:50:28.341Z,998.14
2022-07-25T03:51:27.372Z,998.13
2022-07-25T03:52:27.364Z,998.14
2022-07-25T03:53:27.671Z,998.11
2022-07-25T03:54:27.340Z,998.08
2022-07-25T03:55:27.322Z,998.08
2022-07-25T03:56:27.312Z,998.12
2022-07-25T03:57:27.292Z,998.05
2022-07-25T03:58:27.292Z,998.03
2022-07-25T03:59:27.272Z,998.01
2022-07-25T04:00:27.277Z,998.03
2022-07-25T04:01:27.315Z,998.03
2022-07-25T04:02:27.291Z,997.97
2022-07-25T04:03:27.236Z,997.97
2022-07-25T04:04:27.443Z,997.97
2022-07-25T04:05:27.193Z,997.95
2022-07-25T04:06:27.175Z,997.99
2022-07-25T04:07:27.174Z,997.93
2022-07-25T04:08:27.153Z,997.92
2022-07-25T04:09:27.134Z,997.89
2022-07-25T04:10:28.150Z,997.94
2022-07-25T04:11:27.124Z,997.91
2022-07-25T04:12:27.118Z,997.89
2022-07-25T04:13:27.086Z,997.86
2022-07-25T04:14:27.106Z,997.85
2022-07-25T04:15:27.317Z,997.84
2022-07-25T04:16:27.863Z,997.76
2022-07-25T04:17:27.035Z,997.81
2022-07-25T04:18:28.735Z,997.79
2022-07-25T04:19:28.877Z,997.74
2022-07-25T04:20:27.007Z,997.75
2022-07-25T04:21:26.985Z,997.66
2022-07-25T04:22:27.002Z,997.63
2022-07-25T04:23:26.955Z,997.63
2022-07-25T04:24:26.966Z,997.62
2022-07-25T04:25:26.935Z,997.68
2022-07-25T04:26:26.998Z,997.63
2022-07-25T04:27:26.909Z,997.60
2022-07-25T04:28:26.926Z,997.59
2022-07-25T04:29:26.880Z,997.61
2022-07-25T04:30:26.891Z,997.59
2022-07-25T04:31:26.942Z,997.58
2022-07-25T04:32:26.891Z,997.59
2022-07-25T04:33:26.829Z,997.57
2022-07-25T04:34:26.819Z,997.54
2022-07-25T04:35:26.814Z,997.52
2022-07-25T04:36:26.803Z,997.49
2022-07-25T04:37:26.968Z,997.48
2022-07-25T04:38:26.780Z,997.48
2022-07-25T04:39:26.748Z,997.50
2022-07-25T04:40:26.780Z,997.47
2022-07-25T04:41:26.731Z,997.45
2022-07-25T04:42:26.719Z,997.39
2022-07-25T04:43:26.716Z,997.39
2022-07-25T04:44:26.698Z,997.39
2022-07-25T04:45:26.711Z,997.39
2022-07-25T04:46:26.689Z,997.40
2022-07-25T04:47:26.682Z,997.41
2022-07-25T04:48:26.871Z,997.41
2022-07-25T04:49:26.629Z,997.40
2022-07-25T04:50:26.620Z,997.39
2022-07-25T04:51:26.601Z,997.37
2022-07-25T04:52:26.592Z,997.37
2022-07-25T04:53:26.563Z,997.40
2022-07-25T04:54:26.560Z,997.40
2022-07-25T04:55:26.547Z,997.39
2022-07-25T04:56:26.575Z,997.40
2022-07-25T04:57:26.512Z,997.38
2022-07-25T04:58:26.512Z,997.37
2022-07-25T04:59:26.674Z,997.35
2022-07-25T05:00:26.482Z,997.36
2022-07-25T05:01:26.533Z,997.35
2022-07-25T05:02:26.491Z,997.34
2022-07-25T05:03:26.455Z,997.33
2022-07-25T05:04:26.432Z,997.33
2022-07-25T05:05:26.412Z,997.29
2022-07-25T05:06:26.426Z,997.26
2022-07-25T05:07:26.391Z,997.25
2022-07-25T05:08:26.383Z,997.21
2022-07-25T05:09:26.367Z,997.21
2022-07-25T05:10:26.447Z,997.25
2022-07-25T05:11:26.343Z,997.23
2022-07-25T05:12:26.367Z,997.22
2022-07-25T05:13:26.313Z,997.24
2022-07-25T05:14:26.313Z,997.22
2022-07-25T05:15:26.286Z,997.15
2022-07-25T05:16:26.325Z,997.16
2022-07-25T05:17:26.256Z,997.18
2022-07-25T05:18:26.276Z,997.20
2022-07-25T05:19:26.235Z,997.16
2022-07-25T05:20:26.226Z,997.21
2022-07-25T05:21:26.485Z,997.16
2022-07-25T05:22:28.400Z,997.17
2022-07-25T05:23:26.197Z,997.16
2022-07-25T05:24:26.194Z,997.17
2022-07-25T05:25:26.155Z,997.17
2022-07-25T05:26:26.155Z,997.12
2022-07-25T05:27:26.147Z,997.15
2022-07-25T05:28:26.137Z,997.13
2022-07-25T05:29:26.114Z,997.11
2022-07-25T05:30:26.108Z,997.10
2022-07-25T05:31:26.148Z,997.09
2022-07-25T05:32:26.387Z,997.08
2022-07-25T05:33:26.066Z,997.06
2022-07-25T05:34:26.050Z,997.05
2022-07-25T05:35:26.029Z,997.05
2022-07-25T05:36:26.030Z,997.00
2022-07-25T05:37:26.011Z,997.00
2022-07-25T05:38:26.013Z,996.96
2022-07-25T05:39:25.984Z,996.93
2022-07-25T05:40:25.976Z,996.91
2022-07-25T05:41:25.951Z,996.95
2022-07-25T05:42:25.959Z,996.94
2022-07-25T05:43:26.029Z,996.97
2022-07-25T05:44:25.929Z,996.95
2022-07-25T05:45:25.911Z,996.94
2022-07-25T05:46:25.948Z,996.95
2022-07-25T05:47:25.910Z,996.93
2022-07-25T05:48:25.952Z,996.90
2022-07-25T05:49:25.854Z,996.92
2022-07-25T05:50:25.842Z,996.88
2022-07-25T05:51:27.670Z,996.86
2022-07-25T05:52:25.821Z,996.87
2022-07-25T05:53:25.808Z,996.92
2022-07-25T05:54:25.846Z,996.90
2022-07-25T05:55:25.782Z,996.86
2022-07-25T05:56:25.764Z,996.84
2022-07-25T05:57:25.752Z,996.81
2022-07-25T05:58:29.722Z,996.87
2022-07-25T05:59:25.728Z,996.84
2022-07-25T06:00:25.725Z,996.86
2022-07-25T06:01:25.753Z,996.88
2022-07-25T06:02:25.845Z,996.87
2022-07-25T06:03:25.763Z,996.87
2022-07-25T06:04:27.388Z,996.90
2022-07-25T06:05:25.805Z,996.86
2022-07-25T06:06:25.654Z,996.93
2022-07-25T06:07:25.626Z,996.92
2022-07-25T06:08:25.616Z,996.85
2022-07-25T06:09:25.603Z,996.86
2022-07-25T06:10:25.597Z,996.84
2022-07-25T06:11:25.599Z,996.82
2022-07-25T06:12:25.567Z,996.83
2022-07-25T06:13:25.557Z,996.84
2022-07-25T06:14:25.550Z,996.82
2022-07-25T06:15:27.061Z,996.83
2022-07-25T06:16:25.697Z,996.80
2022-07-25T06:17:30.492Z,996.78
2022-07-25T06:18:26.501Z,996.82
2022-07-25T06:19:25.486Z,996.76
2022-07-25T06:20:25.468Z,996.79
2022-07-25T06:21:25.447Z,996.78
2022-07-25T06:22:25.437Z,996.71
2022-07-25T06:23:27.571Z,996.73
2022-07-25T06:24:25.408Z,996.76
2022-07-25T06:25:25.413Z,996.73
2022-07-25T06:26:25.398Z,996.70
2022-07-25T06:27:29.256Z,996.72
2022-07-25T06:28:25.359Z,996.76
2022-07-25T06:29:25.349Z,996.72
2022-07-25T06:30:25.376Z,996.64
2022-07-25T06:31:25.379Z,996.68
2022-07-25T06:32:25.299Z,996.66
2022-07-25T06:33:25.294Z,996.69
2022-07-25T06:34:28.647Z,996.70
2022-07-25T06:35:25.262Z,996.67
2022-07-25T06:36:32.045Z,996.66
2022-07-25T06:37:26.302Z,996.65
2022-07-25T06:38:25.241Z,996.63
2022-07-25T06:39:25.221Z,996.65
2022-07-25T06:40:25.314Z,996.67
2022-07-25T06:41:25.193Z,996.65
2022-07-25T06:42:25.173Z,996.63
2022-07-25T06:43:25.162Z,996.64
2022-07-25T06:44:25.154Z,996.61
2022-07-25T06:45:25.510Z,996.60
2022-07-25T06:46:25.158Z,996.57
2022-07-25T06:47:25.122Z,996.57
2022-07-25T06:48:25.232Z,996.55
2022-07-25T06:49:25.094Z,996.55
2022-07-25T06:50:25.114Z,996.57
2022-07-25T06:51:25.065Z,996.54
2022-07-25T06:52:25.050Z,996.53
2022-07-25T06:53:25.035Z,996.55
2022-07-25T06:54:25.017Z,996.53
2022-07-25T06:55:25.018Z,996.52
2022-07-25T06:56:24.994Z,996.50
2022-07-25T06:57:24.976Z,996.51
2022-07-25T06:58:25.926Z,996.49
2022-07-25T06:59:25.135Z,996.44
2022-07-25T07:00:25.031Z,996.41
2022-07-25T07:01:25.025Z,996.37
2022-07-25T07:02:24.927Z,996.39
2022-07-25T07:03:25.003Z,996.38
2022-07-25T07:04:24.887Z,996.36
2022-07-25T07:05:24.886Z,996.32
2022-07-25T07:06:25.118Z,996.32
2022-07-25T07:07:24.866Z,996.33
2022-07-25T07:08:24.863Z,996.30
2022-07-25T07:09:24.828Z,996.24
2022-07-25T07:10:24.978Z,996.27
2022-07-25T07:11:24.813Z,996.24
2022-07-25T07:12:24.790Z,996.29
2022-07-25T07:13:24.830Z,996.29
2022-07-25T07:14:24.769Z,996.26
2022-07-25T07:15:24.776Z,996.30
2022-07-25T07:16:24.819Z,996.24
2022-07-25T07:17:24.733Z,996.13
2022-07-25T07:18:24.729Z,996.23
2022-07-25T07:19:24.711Z,996.24
2022-07-25T07:20:24.693Z,996.26
2022-07-25T07:21:25.032Z,996.28
2022-07-25T07:22:24.675Z,996.26
2022-07-25T07:23:24.906Z,996.20
2022-07-25T07:24:24.886Z,996.24
2022-07-25T07:25:24.622Z,996.25
2022-07-25T07:26:24.626Z,996.14
2022-07-25T07:27:24.614Z,996.17
2022-07-25T07:28:24.610Z,996.20
2022-07-25T07:29:24.584Z,996.23
2022-07-25T07:30:37.584Z,996.22
2022-07-25T07:31:25.666Z,996.11
2022-07-25T07:32:24.604Z,996.11
2022-07-25T07:33:24.545Z,996.12
2022-07-25T07:34:24.526Z,996.09
2022-07-25T07:35:24.509Z,996.06
2022-07-25T07:36:24.495Z,996.08
2022-07-25T07:37:24.497Z,996.07
2022-07-25T07:38:24.468Z,996.07
2022-07-25T07:39:24.477Z,996.03
2022-07-25T07:40:24.447Z,996.04
2022-07-25T07:41:24.438Z,996.03
2022-07-25T07:42:24.609Z,996.02
2022-07-25T07:43:29.699Z,996.00
2022-07-25T07:44:25.387Z,996.01
2022-07-25T07:45:24.389Z,995.99
2022-07-25T07:46:24.414Z,995.93
2022-07-25T07:47:24.440Z,995.97
2022-07-25T07:48:24.352Z,995.97
2022-07-25T07:49:24.454Z,995.95
2022-07-25T07:50:24.330Z,995.97
2022-07-25T07:51:24.313Z,995.91
2022-07-25T07:52:24.299Z,995.88
2022-07-25T07:53:24.621Z,995.89
2022-07-25T07:54:24.282Z,995.76
2022-07-25T07:55:24.260Z,995.81
2022-07-25T07:56:24.250Z,995.80
2022-07-25T07:57:24.233Z,995.82
2022-07-25T07:58:24.236Z,995.79
2022-07-25T07:59:24.207Z,995.83
2022-07-25T08:00:24.191Z,995.79
2022-07-25T08:01:24.254Z,995.80
2022-07-25T08:02:24.219Z,995.77
2022-07-25T08:03:24.234Z,995.73
2022-07-25T08:04:24.238Z,995.69
2022-07-25T08:05:24.213Z,995.69
2022-07-25T08:06:24.114Z,995.64
2022-07-25T08:07:24.114Z,995.62
2022-07-25T08:08:27.791Z,995.66
2022-07-25T08:09:25.085Z,995.61
2022-07-25T08:10:24.072Z,995.65
2022-07-25T08:11:24.068Z,995.66
2022-07-25T08:12:24.046Z,995.63
2022-07-25T08:13:24.041Z,995.64
2022-07-25T08:14:24.026Z,995.67
2022-07-25T08:15:24.119Z,995.67
2022-07-25T08:16:24.066Z,995.59
2022-07-25T08:17:28.472Z,995.66
2022-07-25T08:18:23.968Z,995.61
2022-07-25T08:19:23.958Z,995.63
2022-07-25T08:20:39.488Z,995.62
2022-07-25T08:21:24.939Z,995.58
2022-07-25T08:22:23.921Z,995.54
2022-07-25T08:23:23.909Z,995.58
2022-07-25T08:24:23.898Z,995.56
2022-07-25T08:25:23.878Z,995.55
2022-07-25T08:26:24.131Z,995.51
2022-07-25T08:27:23.861Z,995.57
2022-07-25T08:28:23.852Z,995.54
2022-07-25T08:29:28.011Z,995.58
2022-07-25T08:30:23.824Z,995.53
2022-07-25T08:31:23.883Z,995.59
2022-07-25T08:32:23.792Z,995.62
2022-07-25T08:33:23.795Z,995.59
2022-07-25T08:34:23.772Z,995.53
2022-07-25T08:35:23.771Z,995.58
2022-07-25T08:36:23.753Z,995.51
2022-07-25T08:37:24.123Z,995.64
2022-07-25T08:38:23.724Z,995.54
2022-07-25T08:39:23.715Z,995.53
2022-07-25T08:40:23.695Z,995.62
2022-07-25T08:41:24.727Z,995.60
2022-07-25T08:42:23.664Z,995.57
2022-07-25T08:43:23.666Z,995.57
2022-07-25T08:44:23.649Z,995.65
2022-07-25T08:45:23.628Z,995.53
2022-07-25T08:46:23.667Z,995.54
2022-07-25T08:47:23.649Z,995.51
2022-07-25T08:48:23.705Z,995.56
2022-07-25T08:49:23.598Z,995.50
2022-07-25T08:50:23.568Z,995.47
2022-07-25T08:51:23.557Z,995.41
2022-07-25T08:52:23.548Z,995.44
2022-07-25T08:53:38.918Z,995.50
2022-07-25T08:54:24.526Z,995.49
2022-07-25T08:55:23.507Z,995.40
2022-07-25T08:56:23.517Z,995.44
2022-07-25T08:57:23.479Z,995.42
2022-07-25T08:58:23.471Z,995.43
2022-07-25T08:59:23.582Z,995.41
2022-07-25T09:00:23.450Z,995.48
2022-07-25T09:01:23.500Z,995.46
2022-07-25T09:02:23.565Z,995.38
2022-07-25T09:03:23.441Z,995.38
2022-07-25T09:04:23.407Z,995.33
2022-07-25T09:05:23.391Z,995.37
2022-07-25T09:06:23.371Z,995.32
2022-07-25T09:07:23.361Z,995.29
2022-07-25T09:08:23.341Z,995.35
2022-07-25T09:09:23.369Z,995.30
2022-07-25T09:10:23.533Z,995.25
2022-07-25T09:11:23.303Z,995.28
2022-07-25T09:12:26.038Z,995.27
2022-07-25T09:13:23.293Z,995.29
2022-07-25T09:14:23.275Z,995.29
2022-07-25T09:15:23.265Z,995.36
2022-07-25T09:16:23.306Z,995.37
2022-07-25T09:17:23.779Z,995.43
2022-07-25T09:18:23.229Z,995.31
2022-07-25T09:19:23.228Z,995.38
2022-07-25T09:20:23.195Z,995.34
2022-07-25T09:21:23.596Z,995.32
2022-07-25T09:22:23.176Z,995.30
2022-07-25T09:23:23.179Z,995.36
2022-07-25T09:24:23.166Z,995.37
2022-07-25T09:25:23.136Z,995.35
2022-07-25T09:26:23.143Z,995.53
2022-07-25T09:27:23.110Z,995.36
2022-07-25T09:28:23.096Z,995.36
2022-07-25T09:29:23.085Z,995.33
2022-07-25T09:30:23.068Z,995.30
2022-07-25T09:31:23.093Z,995.34
2022-07-25T09:32:23.238Z,995.37
2022-07-25T09:33:23.039Z,995.32
2022-07-25T09:34:25.606Z,995.36
2022-07-25T09:35:23.008Z,995.36
2022-07-25T09:36:23.005Z,995.35
2022-07-25T09:37:22.989Z,995.36
2022-07-25T09:38:22.971Z,995.29
2022-07-25T09:39:23.032Z,995.30
2022-07-25T09:40:22.960Z,995.31
2022-07-25T09:41:22.945Z,995.31
2022-07-25T09:42:22.926Z,995.34
2022-07-25T09:43:23.011Z,995.37
2022-07-25T09:44:22.909Z,995.41
2022-07-25T09:45:22.899Z,995.32
2022-07-25T09:46:22.945Z,995.39
2022-07-25T09:47:22.871Z,995.29
2022-07-25T09:48:22.853Z,995.31
2022-07-25T09:49:22.841Z,995.34
2022-07-25T09:50:22.833Z,995.29
2022-07-25T09:51:22.828Z,995.35
2022-07-25T09:52:22.801Z,995.34
2022-07-25T09:53:22.807Z,995.30
2022-07-25T09:54:22.807Z,995.32
2022-07-25T09:55:22.765Z,995.34
2022-07-25T09:56:22.759Z,995.34
2022-07-25T09:57:22.766Z,995.37
2022-07-25T09:58:22.737Z,995.39
2022-07-25T09:59:22.727Z,995.44
2022-07-25T10:00:22.722Z,995.40
2022-07-25T10:01:22.763Z,995.49
2022-07-25T10:02:22.789Z,995.39
2022-07-25T10:03:22.677Z,995.41
2022-07-25T10:04:22.658Z,995.44
2022-07-25T10:05:22.979Z,995.43
2022-07-25T10:06:22.637Z,995.52
2022-07-25T10:07:22.632Z,995.48
2022-07-25T10:08:22.609Z,995.39
2022-07-25T10:09:22.605Z,995.48
2022-07-25T10:10:22.593Z,995.43
2022-07-25T10:11:22.572Z,995.36
2022-07-25T10:12:22.550Z,995.41
2022-07-25T10:13:22.563Z,995.39
2022-07-25T10:14:22.553Z,995.38
2022-07-25T10:15:22.533Z,995.37
2022-07-25T10:16:22.841Z,995.34
2022-07-25T10:17:22.559Z,995.39
2022-07-25T10:18:22.482Z,995.37
2022-07-25T10:19:22.492Z,995.32
2022-07-25T10:20:22.465Z,995.30
2022-07-25T10:21:26.798Z,995.29
2022-07-25T10:22:40.012Z,995.33
2022-07-25T10:23:23.424Z,995.29
2022-07-25T10:24:22.405Z,995.32
2022-07-25T10:25:22.415Z,995.27
2022-07-25T10:26:22.388Z,995.30
2022-07-25T10:27:22.484Z,995.33
2022-07-25T10:28:22.376Z,995.22
2022-07-25T10:29:22.355Z,995.25
2022-07-25T10:30:22.338Z,995.22
2022-07-25T10:31:22.456Z,995.37
2022-07-25T10:32:22.306Z,995.30
2022-07-25T10:33:22.303Z,995.28
2022-07-25T10:34:22.316Z,995.31
2022-07-25T10:35:22.288Z,995.28
2022-07-25T10:36:22.279Z,995.31
2022-07-25T10:37:22.258Z,995.24
2022-07-25T10:38:22.338Z,995.26
2022-07-25T10:39:22.235Z,995.30
2022-07-25T10:40:22.218Z,995.23
2022-07-25T10:41:22.210Z,995.28
2022-07-25T10:42:22.200Z,995.33
2022-07-25T10:43:22.190Z,995.30
2022-07-25T10:44:22.199Z,995.31
2022-07-25T10:45:22.162Z,995.26
2022-07-25T10:46:22.219Z,995.30
2022-07-25T10:47:22.131Z,995.36
2022-07-25T10:48:22.120Z,995.27
2022-07-25T10:49:31.091Z,995.26
2022-07-25T10:50:40.421Z,995.27
2022-07-25T10:51:23.081Z,995.29
2022-07-25T10:52:22.063Z,995.33
2022-07-25T10:53:22.053Z,995.44
2022-07-25T10:54:22.051Z,995.40
2022-07-25T10:55:22.046Z,995.32
2022-07-25T10:56:22.024Z,995.31
2022-07-25T10:57:22.014Z,995.28
2022-07-25T10:58:21.995Z,995.30
2022-07-25T10:59:21.996Z,995.31
2022-07-25T11:00:22.255Z,995.21
2022-07-25T11:01:22.032Z,995.09
2022-07-25T11:02:21.969Z,995.19
2022-07-25T11:03:21.946Z,995.24
2022-07-25T11:04:21.926Z,995.29
2022-07-25T11:05:21.918Z,995.23
2022-07-25T11:06:21.897Z,995.25
2022-07-25T11:07:21.906Z,995.25
2022-07-25T11:08:22.763Z,995.18
2022-07-25T11:09:26.934Z,995.31
2022-07-25T11:10:23.171Z,995.18
2022-07-25T11:11:21.848Z,995.03
2022-07-25T11:12:21.842Z,994.97
2022-07-25T11:13:21.853Z,994.89
2022-07-25T11:14:21.817Z,994.97
2022-07-25T11:15:21.809Z,994.93
2022-07-25T11:16:21.816Z,994.92
2022-07-25T11:17:21.789Z,994.87
2022-07-25T11:18:21.760Z,994.89
2022-07-25T11:19:21.751Z,994.98
2022-07-25T11:20:21.743Z,994.98
2022-07-25T11:21:21.862Z,994.95
2022-07-25T11:22:21.711Z,994.90
2022-07-25T11:23:21.725Z,994.93
2022-07-25T11:24:21.693Z,994.91
2022-07-25T11:25:21.701Z,994.96
2022-07-25T11:26:21.672Z,995.08
2022-07-25T11:27:21.658Z,995.12
2022-07-25T11:28:21.649Z,995.06
2022-07-25T11:29:21.635Z,995.18
2022-07-25T11:30:21.615Z,995.15
2022-07-25T11:31:21.644Z,995.15
2022-07-25T11:32:21.671Z,995.08
2022-07-25T11:33:21.592Z,995.16
2022-07-25T11:34:21.588Z,995.13
2022-07-25T11:35:21.567Z,995.20
2022-07-25T11:36:21.588Z,995.09
2022-07-25T11:37:21.556Z,995.09
2022-07-25T11:38:21.537Z,995.14
2022-07-25T11:39:21.533Z,995.17
2022-07-25T11:40:21.496Z,995.14
2022-07-25T11:41:21.488Z,995.13
2022-07-25T11:42:21.489Z,995.21
2022-07-25T11:43:21.548Z,995.16
2022-07-25T11:44:21.448Z,995.13
2022-07-25T11:45:21.455Z,995.11
2022-07-25T11:46:21.488Z,995.15
2022-07-25T11:47:21.422Z,995.11
2022-07-25T11:48:21.419Z,995.05
2022-07-25T11:49:21.443Z,995.02
2022-07-25T11:50:21.381Z,994.98
2022-07-25T11:51:21.371Z,995.04
2022-07-25T11:52:21.362Z,995.00
2022-07-25T11:53:21.354Z,995.07
2022-07-25T11:54:21.701Z,995.18
2022-07-25T11:55:21.327Z,995.11
2022-07-25T11:57:22.292Z,995.06
2022-07-25T11:58:21.302Z,994.97
2022-07-25T11:59:21.274Z,994.98
2022-07-25T12:00:21.282Z,994.93
2022-07-25T12:01:21.253Z,994.96
2022-07-25T12:02:21.365Z,994.97
2022-07-25T12:03:21.373Z,995.01
2022-07-25T12:04:21.217Z,994.98
2022-07-25T12:05:21.284Z,994.97
2022-07-25T12:06:21.207Z,994.90
2022-07-25T12:07:21.175Z,994.90
2022-07-25T12:08:21.178Z,994.96
2022-07-25T12:09:21.162Z,994.98
2022-07-25T12:10:21.147Z,994.97
2022-07-25T12:11:21.126Z,994.99
2022-07-25T12:12:21.107Z,994.97
2022-07-25T12:13:21.098Z,994.93
2022-07-25T12:14:21.088Z,994.94
2022-07-25T12:15:21.071Z,994.96
2022-07-25T12:16:21.324Z,994.95
2022-07-25T12:17:21.049Z,994.96
2022-07-25T12:18:21.047Z,995.04
2022-07-25T12:19:21.018Z,995.01
2022-07-25T12:20:21.008Z,994.94
2022-07-25T12:21:20.997Z,994.94
2022-07-25T12:22:20.996Z,994.97
2022-07-25T12:23:20.987Z,994.97
2022-07-25T12:24:20.979Z,994.94
2022-07-25T12:25:20.942Z,994.98
2022-07-25T12:26:20.943Z,995.02
2022-07-25T12:27:21.101Z,995.09
2022-07-25T12:28:20.915Z,995.03
2022-07-25T12:29:20.900Z,995.06